createdAt,value
2019-06-20T00:01:48.404Z,99796.00
2019-06-20T00:04:16.378Z,99811.00
2019-06-20T00:06:44.240Z,99820.00
2019-06-20T00:09:12.171Z,99833.00
2019-06-20T00:11:39.983Z,99848.00
2019-06-20T00:14:07.963Z,99850.00
2019-06-20T00:16:35.918Z,99853.00
2019-06-20T00:19:03.974Z,99862.00
2019-06-20T00:21:31.883Z,99858.00
2019-06-20T00:23:59.861Z,99851.00
2019-06-20T00:26:29.620Z,99856.00
2019-06-20T00:28:57.482Z,99873.00
2019-06-20T00:31:25.362Z,99897.00
2019-06-20T00:33:53.343Z,99866.00
2019-06-20T00:36:21.296Z,99904.00
2019-06-20T00:38:49.085Z,99919.00
2019-06-20T00:41:18.182Z,99917.00
2019-06-20T00:43:46.180Z,99918.00
2019-06-20T00:46:14.637Z,99909.00
2019-06-20T00:48:43.321Z,99918.00
2019-06-20T00:51:11.350Z,99919.00
2019-06-20T00:53:39.250Z,99933.00
2019-06-20T00:56:07.396Z,99932.00
2019-06-20T00:58:35.262Z,99934.00
2019-06-20T01:01:03.375Z,99890.00
2019-06-20T01:03:31.561Z,99860.00
2019-06-20T01:05:59.528Z,99877.00
2019-06-20T01:08:27.424Z,99876.00
2019-06-20T01:10:55.380Z,99838.00
2019-06-20T01:13:32.980Z,99830.00
2019-06-20T01:15:53.751Z,99826.00
2019-06-20T01:18:22.873Z,99844.00
2019-06-20T01:20:50.803Z,99846.00
2019-06-20T01:23:18.958Z,99843.00
2019-06-20T01:25:47.038Z,99810.00
2019-06-20T01:28:15.016Z,99799.00
2019-06-20T01:30:43.084Z,99800.00
2019-06-20T01:33:10.968Z,99792.00
2019-06-20T01:35:38.854Z,99802.00
2019-06-20T01:38:07.067Z,99807.00
2019-06-20T01:40:35.042Z,99828.00
2019-06-20T01:43:04.596Z,99841.00
2019-06-20T01:45:32.574Z,99839.00
2019-06-20T01:48:00.429Z,99848.00
2019-06-20T01:50:28.798Z,99855.00
2019-06-20T01:52:56.761Z,99848.00
2019-06-20T01:55:24.605Z,99859.00
2019-06-20T01:57:52.545Z,99868.00
2019-06-20T02:00:46.813Z,99863.00
2019-06-20T02:03:15.087Z,99873.00
2019-06-20T02:05:42.919Z,99883.00
2019-06-20T02:08:10.820Z,99877.00
2019-06-20T02:10:38.707Z,99888.00
2019-06-20T02:13:06.641Z,99904.00
2019-06-20T02:15:34.499Z,99894.00
2019-06-20T02:18:02.656Z,99902.00
2019-06-20T02:20:35.080Z,99902.00
2019-06-20T02:23:03.712Z,99914.00
2019-06-20T02:25:32.134Z,99913.00
2019-06-20T02:28:00.105Z,99913.00
2019-06-20T02:30:28.079Z,99916.00
2019-06-20T02:32:56.100Z,99927.00
2019-06-20T02:35:24.170Z,99920.00
2019-06-20T02:37:52.081Z,99908.00
2019-06-20T02:40:20.030Z,99911.00
2019-06-20T02:42:48.028Z,99928.00
2019-06-20T02:45:17.745Z,99929.00
2019-06-20T02:47:45.730Z,99924.00
2019-06-20T02:50:14.991Z,99931.00
2019-06-20T02:52:42.889Z,99926.00
2019-06-20T02:55:11.578Z,99929.00
2019-06-20T02:57:40.411Z,99928.00
2019-06-20T03:00:09.049Z,99920.00
2019-06-20T03:02:36.884Z,99919.00
2019-06-20T03:05:05.380Z,99927.00
2019-06-20T03:07:33.329Z,99930.00
2019-06-20T03:10:02.522Z,99928.00
2019-06-20T03:12:30.589Z,99935.00
2019-06-20T03:14:58.508Z,99940.00
2019-06-20T03:17:26.382Z,99951.00
2019-06-20T03:22:34.135Z,99958.00
2019-06-20T03:25:02.133Z,99959.00
2019-06-20T03:27:30.122Z,99960.00
2019-06-20T03:29:58.028Z,99967.00
2019-06-20T03:32:26.035Z,99976.00
2019-06-20T03:34:54.110Z,99984.00
2019-06-20T03:37:21.972Z,99983.00
2019-06-20T03:39:49.884Z,99984.00
2019-06-20T03:42:17.796Z,99988.00
2019-06-20T03:44:58.433Z,99995.00
2019-06-20T03:47:15.755Z,99994.00
2019-06-20T03:49:43.680Z,100014.00
2019-06-20T03:52:11.707Z,99998.00
2019-06-20T03:54:39.647Z,100003.00
2019-06-20T03:57:07.634Z,100000.00
2019-06-20T03:59:35.585Z,100006.00
2019-06-20T04:02:03.530Z,100004.00
2019-06-20T04:04:31.459Z,100003.00
2019-06-20T04:06:59.346Z,100006.00
2019-06-20T04:09:27.371Z,100008.00
2019-06-20T04:11:55.316Z,100011.00
2019-06-20T04:14:23.197Z,100012.00
2019-06-20T04:16:51.486Z,100016.00
2019-06-20T04:19:28.318Z,100024.00
2019-06-20T04:21:56.292Z,100025.00
2019-06-20T04:24:27.668Z,100019.00
2019-06-20T04:26:54.010Z,100021.00
2019-06-20T04:29:21.877Z,100027.00
2019-06-20T04:31:49.775Z,100021.00
2019-06-20T04:34:17.758Z,100027.00
2019-06-20T04:36:48.055Z,100024.00
2019-06-20T04:39:19.348Z,100023.00
2019-06-20T04:41:45.289Z,100016.00
2019-06-20T04:44:13.192Z,100031.00
2019-06-20T04:47:00.781Z,100033.00
2019-06-20T04:49:28.841Z,100041.00
2019-06-20T04:51:56.730Z,100031.00
2019-06-20T04:54:24.682Z,100032.00
2019-06-20T04:56:52.636Z,100037.00
2019-06-20T04:59:20.638Z,100034.00
2019-06-20T05:01:48.763Z,100039.00
2019-06-20T05:04:16.594Z,100040.00
2019-06-20T05:06:50.178Z,100028.00
2019-06-20T05:09:18.423Z,100040.00
2019-06-20T05:11:46.409Z,100038.00
2019-06-20T05:14:14.341Z,100032.00
2019-06-20T05:16:42.307Z,100046.00
2019-06-20T05:19:10.233Z,100041.00
2019-06-20T05:21:38.153Z,100042.00
2019-06-20T05:24:06.027Z,100031.00
2019-06-20T05:26:33.975Z,100032.00
2019-06-20T05:29:05.325Z,100028.00
2019-06-20T05:31:31.730Z,100026.00
2019-06-20T05:33:59.596Z,100036.00
2019-06-20T05:36:27.604Z,100034.00
2019-06-20T05:38:55.490Z,100040.00
2019-06-20T05:41:23.483Z,99987.00
2019-06-20T05:43:51.518Z,100046.00
2019-06-20T05:46:19.426Z,100047.00
2019-06-20T05:48:47.345Z,100043.00
2019-06-20T05:51:15.218Z,100032.00
2019-06-20T05:53:43.108Z,100039.00
2019-06-20T05:56:11.044Z,100047.00
2019-06-20T05:58:38.958Z,100040.00
2019-06-20T06:01:06.884Z,100042.00
2019-06-20T06:03:34.697Z,100038.00
2019-06-20T06:06:02.595Z,100044.00
2019-06-20T06:08:31.468Z,100039.00
2019-06-20T06:10:59.419Z,100038.00
2019-06-20T06:13:28.003Z,100028.00
2019-06-20T06:15:55.954Z,100043.00
2019-06-20T06:18:23.922Z,100047.00
2019-06-20T06:20:51.818Z,100043.00
2019-06-20T06:23:19.670Z,100049.00
2019-06-20T06:25:47.647Z,100044.00
2019-06-20T06:28:15.538Z,100045.00
2019-06-20T06:30:43.521Z,100031.00
2019-06-20T06:33:11.464Z,100045.00
2019-06-20T06:35:39.381Z,100046.00
2019-06-20T06:38:07.351Z,100045.00
2019-06-20T06:40:35.308Z,100047.00
2019-06-20T06:43:03.191Z,100041.00
2019-06-20T06:45:31.128Z,100047.00
2019-06-20T06:47:59.786Z,100038.00
2019-06-20T06:50:27.771Z,100044.00
2019-06-20T06:52:57.286Z,100047.00
2019-06-20T06:55:27.529Z,100054.00
2019-06-20T06:57:54.993Z,100046.00
2019-06-20T07:00:23.262Z,100047.00
2019-06-20T07:02:51.272Z,100051.00
2019-06-20T07:05:19.202Z,100056.00
2019-06-20T07:07:47.144Z,100053.00
2019-06-20T07:10:16.155Z,100060.00
2019-06-20T07:12:44.076Z,100063.00
2019-06-20T07:15:15.586Z,100059.00
2019-06-20T07:17:43.542Z,100060.00
2019-06-20T07:20:15.136Z,100068.00
2019-06-20T07:22:42.529Z,100063.00
2019-06-20T07:25:10.544Z,100063.00
2019-06-20T07:27:38.552Z,100058.00
2019-06-20T07:30:07.177Z,100054.00
2019-06-20T07:32:35.136Z,100057.00
2019-06-20T07:35:03.804Z,100068.00
2019-06-20T07:37:31.698Z,100066.00
2019-06-20T07:39:59.654Z,100059.00
2019-06-20T07:42:27.712Z,100061.00
2019-06-20T07:44:55.925Z,100060.00
2019-06-20T07:47:23.966Z,100054.00
2019-06-20T07:49:51.952Z,100058.00
2019-06-20T07:52:19.828Z,100061.00
2019-06-20T07:54:47.739Z,100062.00
2019-06-20T07:57:15.701Z,100067.00
2019-06-20T07:59:43.801Z,100061.00
2019-06-20T08:02:11.732Z,100062.00
2019-06-20T08:04:39.841Z,100058.00
2019-06-20T08:07:07.869Z,100062.00
2019-06-20T08:09:44.889Z,100060.00
2019-06-20T08:12:05.754Z,100067.00
2019-06-20T08:14:33.693Z,100070.00
2019-06-20T08:17:01.590Z,100058.00
2019-06-20T08:19:29.938Z,100066.00
2019-06-20T08:21:57.845Z,100066.00
2019-06-20T08:24:28.317Z,100078.00
2019-06-20T08:26:57.404Z,100073.00
2019-06-20T08:29:26.232Z,100069.00
2019-06-20T08:31:56.171Z,100069.00
2019-06-20T08:34:25.513Z,100077.00
2019-06-20T08:36:53.506Z,100090.00
2019-06-20T08:39:22.953Z,100077.00
2019-06-20T08:41:50.934Z,100080.00
2019-06-20T08:44:18.815Z,100083.00
2019-06-20T08:46:47.755Z,100084.00
2019-06-20T08:49:15.723Z,100094.00
2019-06-20T08:51:43.592Z,100076.00
2019-06-20T08:54:11.560Z,100084.00
2019-06-20T08:56:40.651Z,100077.00
2019-06-20T08:59:23.456Z,100084.00
2019-06-20T09:01:38.354Z,100077.00
2019-06-20T09:04:06.291Z,100070.00
2019-06-20T09:06:34.280Z,100068.00
2019-06-20T09:09:04.458Z,100073.00
2019-06-20T09:11:32.637Z,100078.00
2019-06-20T09:14:01.490Z,100083.00
2019-06-20T09:16:29.625Z,100057.00
2019-06-20T09:18:58.401Z,100077.00
2019-06-20T09:21:27.605Z,100066.00
2019-06-20T09:23:55.741Z,100064.00
2019-06-20T09:26:23.655Z,100078.00
2019-06-20T09:28:54.039Z,100075.00
2019-06-20T09:31:22.348Z,100069.00
2019-06-20T09:33:52.174Z,100075.00
2019-06-20T09:36:20.332Z,100074.00
2019-06-20T09:38:48.405Z,100076.00
2019-06-20T09:41:17.415Z,100069.00
2019-06-20T09:43:54.216Z,100075.00
2019-06-20T09:46:22.353Z,100080.00
2019-06-20T09:48:51.048Z,100074.00
2019-06-20T09:51:20.073Z,100067.00
2019-06-20T09:53:48.563Z,100077.00
2019-06-20T09:56:16.895Z,100078.00
2019-06-20T09:58:44.886Z,100077.00
2019-06-20T10:01:12.952Z,100083.00
2019-06-20T10:03:41.220Z,100086.00
2019-06-20T10:06:13.891Z,100081.00
2019-06-20T10:08:39.040Z,100090.00
2019-06-20T10:11:06.976Z,100074.00
2019-06-20T10:13:34.971Z,100069.00
2019-06-20T10:16:02.980Z,100076.00
2019-06-20T10:18:30.822Z,100032.00
2019-06-20T10:20:58.844Z,100076.00
2019-06-20T10:23:26.837Z,100080.00
2019-06-20T10:25:54.787Z,100070.00
2019-06-20T10:28:22.816Z,100087.00
2019-06-20T10:30:51.083Z,100077.00
2019-06-20T10:33:19.251Z,100077.00
2019-06-20T10:35:48.448Z,100064.00
2019-06-20T10:38:17.013Z,100070.00
2019-06-20T10:40:46.329Z,100069.00
2019-06-20T10:43:15.752Z,100077.00
2019-06-20T10:45:45.755Z,100073.00
2019-06-20T10:48:13.824Z,100077.00
2019-06-20T10:50:42.632Z,100080.00
2019-06-20T10:53:11.672Z,100078.00
2019-06-20T10:55:40.580Z,100080.00
2019-06-20T10:58:09.979Z,100057.00
2019-06-20T11:00:38.050Z,100067.00
2019-06-20T11:03:06.060Z,100077.00
2019-06-20T11:05:34.064Z,100062.00
2019-06-20T11:08:01.994Z,100075.00
2019-06-20T11:10:31.573Z,100078.00
2019-06-20T11:12:59.507Z,100070.00
2019-06-20T11:15:29.367Z,100078.00
2019-06-20T11:17:57.326Z,100092.00
2019-06-20T11:20:25.431Z,100084.00
2019-06-20T11:22:53.382Z,100085.00
2019-06-20T11:25:21.407Z,100084.00
2019-06-20T11:27:50.558Z,100089.00
2019-06-20T11:30:23.594Z,100079.00
2019-06-20T11:32:51.811Z,100075.00
2019-06-20T11:35:19.883Z,100034.00
2019-06-20T11:37:48.244Z,100079.00
2019-06-20T11:40:16.808Z,100079.00
2019-06-20T11:42:44.824Z,100074.00
2019-06-20T11:45:13.619Z,100066.00
2019-06-20T11:47:42.563Z,100082.00
2019-06-20T11:50:11.369Z,100077.00
2019-06-20T11:52:45.358Z,100065.00
2019-06-20T11:55:12.331Z,100069.00
2019-06-20T11:57:40.422Z,100069.00
2019-06-20T12:00:10.085Z,100064.00
2019-06-20T12:02:40.506Z,100065.00
2019-06-20T12:05:08.021Z,100060.00
2019-06-20T12:07:36.312Z,100057.00
2019-06-20T12:10:05.050Z,100058.00
2019-06-20T12:12:33.047Z,100053.00
2019-06-20T12:15:02.056Z,100051.00
2019-06-20T12:17:30.238Z,100053.00
2019-06-20T12:19:58.292Z,100051.00
2019-06-20T12:22:26.278Z,100030.00
2019-06-20T12:24:54.271Z,100046.00
2019-06-20T12:27:22.479Z,100027.00
2019-06-20T12:29:50.440Z,100036.00
2019-06-20T12:32:20.687Z,100030.00
2019-06-20T12:34:49.088Z,100014.00
2019-06-20T12:37:17.050Z,100034.00
2019-06-20T12:39:46.300Z,100037.00
2019-06-20T12:42:14.403Z,100045.00
2019-06-20T12:44:44.060Z,100043.00
2019-06-20T12:47:12.475Z,100030.00
2019-06-20T12:49:41.688Z,100024.00
2019-06-20T12:52:09.945Z,100038.00
2019-06-20T12:54:38.174Z,100033.00
2019-06-20T12:57:07.328Z,100037.00
2019-06-20T12:59:35.336Z,100044.00
2019-06-20T13:02:03.336Z,100044.00
2019-06-20T13:04:31.247Z,100060.00
2019-06-20T13:06:59.256Z,100062.00
2019-06-20T13:09:27.216Z,100055.00
2019-06-20T13:11:55.190Z,100055.00
2019-06-20T13:14:23.121Z,100066.00
2019-06-20T13:16:51.087Z,100062.00
2019-06-20T13:19:19.047Z,100042.00
2019-06-20T13:21:48.602Z,100051.00
2019-06-20T13:24:16.626Z,100041.00
2019-06-20T13:26:44.594Z,100045.00
2019-06-20T13:29:12.515Z,100032.00
2019-06-20T13:31:56.563Z,100034.00
2019-06-20T13:34:10.278Z,100020.00
2019-06-20T13:36:39.875Z,100024.00
2019-06-20T13:39:08.152Z,100027.00
2019-06-20T13:41:36.191Z,100029.00
2019-06-20T13:44:04.282Z,100030.00
2019-06-20T13:46:32.128Z,100024.00
2019-06-20T13:49:00.035Z,100025.00
2019-06-20T13:51:27.907Z,100018.00
2019-06-20T13:53:55.914Z,100019.00
2019-06-20T13:56:23.778Z,100010.00
2019-06-20T13:58:51.716Z,100007.00
2019-06-20T14:01:19.658Z,100013.00
2019-06-20T14:03:48.728Z,100017.00
2019-06-20T14:06:16.622Z,100012.00
2019-06-20T14:08:45.971Z,100013.00
2019-06-20T14:11:14.112Z,100010.00
2019-06-20T14:13:43.097Z,100003.00
2019-06-20T14:16:11.790Z,100016.00
2019-06-20T14:18:39.689Z,100020.00
2019-06-20T14:21:07.577Z,100009.00
2019-06-20T14:23:35.418Z,100005.00
2019-06-20T14:26:03.261Z,100009.00
2019-06-20T14:28:31.151Z,99979.00
2019-06-20T14:30:59.009Z,100004.00
2019-06-20T14:33:26.908Z,99998.00
2019-06-20T14:35:54.824Z,99992.00
2019-06-20T14:38:22.660Z,99986.00
2019-06-20T14:40:52.483Z,99989.00
2019-06-20T14:43:20.566Z,100005.00
2019-06-20T14:45:48.753Z,99996.00
2019-06-20T14:48:16.627Z,99997.00
2019-06-20T14:50:45.869Z,100000.00
2019-06-20T14:53:14.532Z,100026.00
2019-06-20T14:55:44.240Z,100022.00
2019-06-20T14:58:12.381Z,100020.00
2019-06-20T15:00:40.365Z,100031.00
2019-06-20T15:03:08.290Z,100019.00
2019-06-20T15:05:36.601Z,100016.00
2019-06-20T15:08:04.575Z,100027.00
2019-06-20T15:10:32.567Z,100023.00
2019-06-20T15:13:00.513Z,100029.00
2019-06-20T15:15:31.462Z,100059.00
2019-06-20T15:17:58.500Z,100089.00
2019-06-20T15:20:26.494Z,100087.00
2019-06-20T15:22:56.820Z,100092.00
2019-06-20T15:25:25.116Z,100111.00
2019-06-20T15:27:54.861Z,100109.00
2019-06-20T15:30:22.942Z,100102.00
2019-06-20T15:33:04.390Z,100097.00
2019-06-20T15:35:21.179Z,100096.00
2019-06-20T15:37:50.196Z,100084.00
2019-06-20T15:40:19.552Z,100077.00
2019-06-20T15:42:49.621Z,100067.00
2019-06-20T15:45:18.090Z,100063.00
2019-06-20T15:47:46.119Z,100063.00
2019-06-20T15:50:14.188Z,100070.00
2019-06-20T15:52:42.226Z,100065.00
2019-06-20T15:55:10.652Z,100066.00
2019-06-20T15:57:38.859Z,100074.00
2019-06-20T16:00:07.918Z,100074.00
2019-06-20T16:02:35.857Z,100073.00
2019-06-20T16:05:04.777Z,100073.00
2019-06-20T16:07:32.786Z,100069.00
2019-06-20T16:10:00.930Z,100076.00
2019-06-20T16:12:28.828Z,100066.00
2019-06-20T16:14:56.744Z,100073.00
2019-06-20T16:17:24.668Z,100079.00
2019-06-20T16:19:52.737Z,100082.00
2019-06-20T16:22:20.563Z,100081.00
2019-06-20T16:24:49.537Z,100082.00
2019-06-20T16:27:17.448Z,100082.00
2019-06-20T16:29:45.292Z,100077.00
2019-06-20T16:32:13.126Z,100088.00
2019-06-20T16:34:41.145Z,100098.00
2019-06-20T16:37:10.443Z,100094.00
2019-06-20T16:39:38.765Z,100086.00
2019-06-20T16:42:06.630Z,100090.00
2019-06-20T16:44:34.604Z,100095.00
2019-06-20T16:47:02.488Z,100093.00
2019-06-20T16:49:30.457Z,100090.00
2019-06-20T16:51:58.343Z,100093.00
2019-06-20T16:54:26.706Z,100092.00
2019-06-20T16:56:54.604Z,100091.00
2019-06-20T16:59:22.560Z,100101.00
2019-06-20T17:01:50.500Z,100093.00
2019-06-20T17:04:18.444Z,100093.00
2019-06-20T17:06:46.414Z,100092.00
2019-06-20T17:09:14.339Z,100095.00
2019-06-20T17:11:42.240Z,100103.00
2019-06-20T17:14:10.129Z,100113.00
2019-06-20T17:16:38.133Z,100115.00
2019-06-20T17:19:06.082Z,100127.00
2019-06-20T17:21:34.141Z,100127.00
2019-06-20T17:24:02.124Z,100119.00
2019-06-20T17:26:30.431Z,100105.00
2019-06-20T17:28:58.200Z,100123.00
2019-06-20T17:31:26.123Z,100126.00
2019-06-20T17:33:57.795Z,100133.00
2019-06-20T17:36:23.884Z,100132.00
2019-06-20T17:38:52.960Z,100120.00
2019-06-20T17:41:20.925Z,100130.00
2019-06-20T17:43:48.835Z,100145.00
2019-06-20T17:46:16.824Z,100154.00
2019-06-20T17:48:44.727Z,100182.00
2019-06-20T17:51:12.630Z,100191.00
2019-06-20T17:53:40.649Z,100185.00
2019-06-20T17:56:08.797Z,100221.00
2019-06-20T17:58:36.902Z,100199.00
2019-06-20T18:01:04.806Z,100207.00
2019-06-20T18:03:32.784Z,100193.00
2019-06-20T18:06:00.739Z,100208.00
2019-06-20T18:08:29.896Z,100162.00
2019-06-20T18:10:57.841Z,100216.00
2019-06-20T18:13:25.793Z,100221.00
2019-06-20T18:15:53.829Z,100224.00
2019-06-20T18:18:21.755Z,100224.00
2019-06-20T18:20:49.852Z,100238.00
2019-06-20T18:23:17.779Z,100240.00
2019-06-20T18:25:48.954Z,100248.00
2019-06-20T18:28:16.810Z,100245.00
2019-06-20T18:30:45.190Z,100246.00
2019-06-20T18:33:13.090Z,100240.00
2019-06-20T18:35:41.520Z,100247.00
2019-06-20T18:38:10.651Z,100240.00
2019-06-20T18:40:39.818Z,100245.00
2019-06-20T18:43:07.831Z,100240.00
2019-06-20T18:45:35.914Z,100245.00
2019-06-20T18:48:04.053Z,100239.00
2019-06-20T18:50:32.301Z,100234.00
2019-06-20T18:53:00.294Z,100231.00
2019-06-20T18:55:28.537Z,100235.00
2019-06-20T18:57:58.827Z,100230.00
2019-06-20T19:00:34.708Z,100233.00
2019-06-20T19:02:58.473Z,100234.00
2019-06-20T19:05:26.750Z,100231.00
2019-06-20T19:07:55.379Z,100241.00
2019-06-20T19:10:25.068Z,100241.00
2019-06-20T19:12:53.197Z,100242.00
2019-06-20T19:15:22.969Z,100247.00
2019-06-20T19:17:51.000Z,100263.00
2019-06-20T19:20:21.059Z,100277.00
2019-06-20T19:22:48.984Z,100272.00
2019-06-20T19:25:17.045Z,100284.00
2019-06-20T19:27:46.910Z,100274.00
2019-06-20T19:30:15.579Z,100272.00
2019-06-20T19:32:43.662Z,100280.00
2019-06-20T19:35:12.133Z,100287.00
2019-06-20T19:37:40.102Z,100281.00
2019-06-20T19:40:09.515Z,100289.00
2019-06-20T19:42:37.788Z,100297.00
2019-06-20T19:45:08.236Z,100300.00
2019-06-20T19:47:36.502Z,100299.00
2019-06-20T19:50:07.205Z,100299.00
2019-06-20T19:52:35.499Z,100302.00
2019-06-20T19:55:04.560Z,100314.00
2019-06-20T19:57:32.540Z,100321.00
2019-06-20T20:00:00.743Z,100318.00
2019-06-20T20:02:28.817Z,100316.00
2019-06-20T20:04:56.812Z,100316.00
2019-06-20T20:07:24.866Z,100312.00
2019-06-20T20:09:52.879Z,100316.00
2019-06-20T20:12:20.833Z,100323.00
2019-06-20T20:14:48.804Z,100319.00
2019-06-20T20:17:16.739Z,100321.00
2019-06-20T20:19:44.810Z,100325.00
2019-06-20T20:22:12.892Z,100330.00
2019-06-20T20:24:40.808Z,100330.00
2019-06-20T20:27:08.712Z,100330.00
2019-06-20T20:29:36.586Z,100343.00
2019-06-20T20:32:04.820Z,100339.00
2019-06-20T20:34:32.752Z,100340.00
2019-06-20T20:37:00.861Z,100341.00
2019-06-20T20:39:28.774Z,100335.00
2019-06-20T20:41:56.801Z,100333.00
2019-06-20T20:44:24.935Z,100326.00
2019-06-20T20:46:52.951Z,100337.00
2019-06-20T20:49:20.903Z,100344.00
2019-06-20T20:51:48.850Z,100346.00
2019-06-20T20:54:18.669Z,100344.00
2019-06-20T20:56:46.578Z,100345.00
2019-06-20T20:59:14.840Z,100353.00
2019-06-20T21:01:42.738Z,100350.00
2019-06-20T21:04:10.691Z,100349.00
2019-06-20T21:06:38.585Z,100349.00
2019-06-20T21:09:07.631Z,100357.00
2019-06-20T21:11:35.955Z,100361.00
2019-06-20T21:14:03.907Z,100363.00
2019-06-20T21:16:31.890Z,100351.00
2019-06-20T21:18:59.853Z,100343.00
2019-06-20T21:21:28.023Z,100348.00
2019-06-20T21:23:56.040Z,100357.00
2019-06-20T21:26:24.360Z,100359.00
2019-06-20T21:28:52.386Z,100353.00
2019-06-20T21:31:20.548Z,100354.00
2019-06-20T21:33:48.721Z,100359.00
2019-06-20T21:36:16.992Z,100363.00
2019-06-20T21:38:44.972Z,100370.00
2019-06-20T21:41:12.999Z,100372.00
2019-06-20T21:43:40.863Z,100382.00
2019-06-20T21:46:08.823Z,100374.00
2019-06-20T21:48:36.748Z,100381.00
2019-06-20T21:51:04.873Z,100378.00
2019-06-20T21:53:32.894Z,100383.00
2019-06-20T21:56:00.867Z,100386.00
2019-06-20T21:58:28.869Z,100387.00
2019-06-20T22:00:59.522Z,100393.00
2019-06-20T22:03:29.531Z,100395.00
2019-06-20T22:05:57.815Z,100389.00
2019-06-20T22:08:28.208Z,100386.00
2019-06-20T22:10:56.330Z,100391.00
2019-06-20T22:13:24.650Z,100391.00
2019-06-20T22:15:53.101Z,100399.00
2019-06-20T22:18:21.461Z,100402.00
2019-06-20T22:20:49.602Z,100395.00
2019-06-20T22:23:17.590Z,100391.00
2019-06-20T22:25:45.626Z,100401.00
2019-06-20T22:28:14.948Z,100402.00
2019-06-20T22:30:50.510Z,100397.00
2019-06-20T22:33:18.482Z,100399.00
2019-06-20T22:35:46.873Z,100399.00
2019-06-20T22:38:15.347Z,100398.00
2019-06-20T22:40:43.524Z,100406.00
2019-06-20T22:43:11.785Z,100411.00
2019-06-20T22:45:40.969Z,100408.00
2019-06-20T22:48:09.080Z,100403.00
2019-06-20T22:50:38.501Z,100402.00
2019-06-20T22:53:06.471Z,100406.00
2019-06-20T22:55:34.734Z,100415.00
2019-06-20T22:58:02.885Z,100421.00
2019-06-20T23:00:30.914Z,100423.00
2019-06-20T23:02:58.812Z,100426.00
2019-06-20T23:05:26.785Z,100428.00
2019-06-20T23:07:54.890Z,100431.00
2019-06-20T23:10:22.911Z,100432.00
2019-06-20T23:12:50.907Z,100433.00
2019-06-20T23:15:19.084Z,100429.00
2019-06-20T23:17:47.029Z,100434.00
2019-06-20T23:20:15.700Z,100436.00
2019-06-20T23:22:43.687Z,100431.00
2019-06-20T23:25:13.609Z,100427.00
2019-06-20T23:27:41.685Z,100423.00
2019-06-20T23:30:11.924Z,100428.00
2019-06-20T23:32:39.974Z,100414.00
2019-06-20T23:35:08.153Z,100428.00
2019-06-20T23:37:36.119Z,100433.00
2019-06-20T23:40:04.603Z,100427.00
2019-06-20T23:42:32.594Z,100444.00
2019-06-20T23:45:00.857Z,100437.00
2019-06-20T23:47:28.749Z,100442.00
2019-06-20T23:49:56.582Z,100448.00
2019-06-20T23:52:26.791Z,100445.00
2019-06-20T23:54:54.688Z,100438.00
2019-06-20T23:57:22.576Z,100440.00
2019-06-20T23:59:50.434Z,100444.00
